sensor_id;sensor_type;location;lat;lon;timestamp;P1;durP1;ratioP1;P2;durP2;ratioP2
36799;SDS011;22752;51.960;5.886;2022-09-09T00:00:53;2.83;;;2.33;;
36799;SDS011;22752;51.960;5.886;2022-09-09T00:03:31;3.03;;;2.42;;
36799;SDS011;22752;51.960;5.886;2022-09-09T00:06:09;5.57;;;3.42;;
36799;SDS011;22752;51.960;5.886;2022-09-09T00:11:27;5.20;;;3.20;;
36799;SDS011;22752;51.960;5.886;2022-09-09T00:14:25;4.85;;;3.10;;
36799;SDS011;22752;51.960;5.886;2022-09-09T00:16:56;4.05;;;2.72;;
36799;SDS011;22752;51.960;5.886;2022-09-09T00:22:19;4.13;;;2.83;;
36799;SDS011;22752;51.960;5.886;2022-09-09T00:24:54;4.03;;;2.42;;
36799;SDS011;22752;51.960;5.886;2022-09-09T00:27:31;4.07;;;2.20;;
36799;SDS011;22752;51.960;5.886;2022-09-09T00:30:22;3.15;;;2.70;;
36799;SDS011;22752;51.960;5.886;2022-09-09T00:32:50;2.88;;;2.30;;
36799;SDS011;22752;51.960;5.886;2022-09-09T00:35:25;3.47;;;2.90;;
36799;SDS011;22752;51.960;5.886;2022-09-09T00:37:56;4.82;;;2.42;;
36799;SDS011;22752;51.960;5.886;2022-09-09T00:43:06;4.60;;;2.95;;
36799;SDS011;22752;51.960;5.886;2022-09-09T00:59:48;4.82;;;2.20;;
36799;SDS011;22752;51.960;5.886;2022-09-09T01:02:45;4.78;;;2.40;;
36799;SDS011;22752;51.960;5.886;2022-09-09T01:07:58;4.18;;;2.20;;
36799;SDS011;22752;51.960;5.886;2022-09-09T01:10:34;3.40;;;2.08;;
36799;SDS011;22752;51.960;5.886;2022-09-09T01:13:16;3.47;;;1.88;;
36799;SDS011;22752;51.960;5.886;2022-09-09T01:15:56;4.78;;;2.10;;
36799;SDS011;22752;51.960;5.886;2022-09-09T01:18:23;3.97;;;2.05;;
36799;SDS011;22752;51.960;5.886;2022-09-09T01:24:19;3.95;;;1.92;;
36799;SDS011;22752;51.960;5.886;2022-09-09T01:26:56;6.30;;;2.17;;
36799;SDS011;22752;51.960;5.886;2022-09-09T01:29:27;6.57;;;1.70;;
36799;SDS011;22752;51.960;5.886;2022-09-09T01:34:18;2.10;;;1.60;;
36799;SDS011;22752;51.960;5.886;2022-09-09T01:39:26;4.43;;;2.03;;
36799;SDS011;22752;51.960;5.886;2022-09-09T01:41:52;4.00;;;1.80;;
36799;SDS011;22752;51.960;5.886;2022-09-09T01:44:20;2.40;;;1.58;;
36799;SDS011;22752;51.960;5.886;2022-09-09T01:46:46;2.72;;;1.83;;
36799;SDS011;22752;51.960;5.886;2022-09-09T01:49:12;3.58;;;2.03;;
36799;SDS011;22752;51.960;5.886;2022-09-09T01:51:38;1.90;;;1.70;;
36799;SDS011;22752;51.960;5.886;2022-09-09T01:54:06;2.15;;;1.65;;
36799;SDS011;22752;51.960;5.886;2022-09-09T01:59:45;3.95;;;2.20;;
36799;SDS011;22752;51.960;5.886;2022-09-09T02:02:59;5.25;;;2.45;;
36799;SDS011;22752;51.960;5.886;2022-09-09T02:05:36;2.42;;;2.22;;
36799;SDS011;22752;51.960;5.886;2022-09-09T02:08:08;4.72;;;2.33;;
36799;SDS011;22752;51.960;5.886;2022-09-09T02:10:47;3.22;;;2.35;;
36799;SDS011;22752;51.960;5.886;2022-09-09T02:13:19;3.85;;;2.28;;
36799;SDS011;22752;51.960;5.886;2022-09-09T02:15:50;2.50;;;2.00;;
36799;SDS011;22752;51.960;5.886;2022-09-09T02:18:19;3.72;;;2.40;;
36799;SDS011;22752;51.960;5.886;2022-09-09T02:20:51;3.58;;;2.20;;
36799;SDS011;22752;51.960;5.886;2022-09-09T02:23:18;6.78;;;2.28;;
36799;SDS011;22752;51.960;5.886;2022-09-09T02:25:45;4.65;;;2.53;;
36799;SDS011;22752;51.960;5.886;2022-09-09T02:28:12;3.25;;;2.25;;
36799;SDS011;22752;51.960;5.886;2022-09-09T02:30:40;3.22;;;2.20;;
36799;SDS011;22752;51.960;5.886;2022-09-09T02:33:10;4.50;;;2.17;;
36799;SDS011;22752;51.960;5.886;2022-09-09T02:35:38;4.38;;;2.72;;
36799;SDS011;22752;51.960;5.886;2022-09-09T02:38:07;3.20;;;2.05;;
36799;SDS011;22752;51.960;5.886;2022-09-09T02:40:37;5.03;;;2.67;;
36799;SDS011;22752;51.960;5.886;2022-09-09T02:43:03;4.35;;;2.67;;
36799;SDS011;22752;51.960;5.886;2022-09-09T02:45:34;5.57;;;2.80;;
36799;SDS011;22752;51.960;5.886;2022-09-09T02:56:14;4.15;;;2.53;;
36799;SDS011;22752;51.960;5.886;2022-09-09T02:58:42;3.47;;;2.53;;
36799;SDS011;22752;51.960;5.886;2022-09-09T03:01:07;6.93;;;2.47;;
36799;SDS011;22752;51.960;5.886;2022-09-09T03:03:33;4.30;;;2.50;;
36799;SDS011;22752;51.960;5.886;2022-09-09T03:06:00;4.25;;;2.45;;
36799;SDS011;22752;51.960;5.886;2022-09-09T03:08:26;3.28;;;2.60;;
36799;SDS011;22752;51.960;5.886;2022-09-09T03:10:53;3.35;;;2.50;;
36799;SDS011;22752;51.960;5.886;2022-09-09T03:13:19;3.05;;;2.50;;
36799;SDS011;22752;51.960;5.886;2022-09-09T03:15:45;3.22;;;2.65;;
36799;SDS011;22752;51.960;5.886;2022-09-09T03:18:13;8.75;;;3.17;;
36799;SDS011;22752;51.960;5.886;2022-09-09T03:20:39;3.58;;;2.38;;
36799;SDS011;22752;51.960;5.886;2022-09-09T03:23:07;6.03;;;2.70;;
36799;SDS011;22752;51.960;5.886;2022-09-09T03:25:32;7.45;;;2.70;;
36799;SDS011;22752;51.960;5.886;2022-09-09T03:27:58;5.07;;;2.67;;
36799;SDS011;22752;51.960;5.886;2022-09-09T03:30:24;4.88;;;2.78;;
36799;SDS011;22752;51.960;5.886;2022-09-09T03:32:51;6.40;;;3.13;;
36799;SDS011;22752;51.960;5.886;2022-09-09T03:35:17;5.85;;;3.13;;
36799;SDS011;22752;51.960;5.886;2022-09-09T03:37:43;3.70;;;2.90;;
36799;SDS011;22752;51.960;5.886;2022-09-09T03:40:09;5.28;;;2.95;;
36799;SDS011;22752;51.960;5.886;2022-09-09T03:42:35;7.55;;;3.15;;
36799;SDS011;22752;51.960;5.886;2022-09-09T03:45:02;5.32;;;3.40;;
36799;SDS011;22752;51.960;5.886;2022-09-09T03:47:32;5.13;;;3.58;;
36799;SDS011;22752;51.960;5.886;2022-09-09T03:49:58;7.30;;;3.50;;
36799;SDS011;22752;51.960;5.886;2022-09-09T03:52:24;3.70;;;3.00;;
36799;SDS011;22752;51.960;5.886;2022-09-09T03:54:51;8.93;;;3.35;;
36799;SDS011;22752;51.960;5.886;2022-09-09T03:57:17;4.22;;;3.40;;
36799;SDS011;22752;51.960;5.886;2022-09-09T03:59:44;7.60;;;3.55;;
36799;SDS011;22752;51.960;5.886;2022-09-09T04:02:09;6.38;;;4.18;;
36799;SDS011;22752;51.960;5.886;2022-09-09T04:04:35;5.35;;;3.17;;
36799;SDS011;22752;51.960;5.886;2022-09-09T04:07:01;7.30;;;3.70;;
36799;SDS011;22752;51.960;5.886;2022-09-09T04:09:26;5.82;;;4.20;;
36799;SDS011;22752;51.960;5.886;2022-09-09T04:11:52;6.07;;;3.97;;
36799;SDS011;22752;51.960;5.886;2022-09-09T04:14:18;7.78;;;3.88;;
36799;SDS011;22752;51.960;5.886;2022-09-09T04:16:44;8.38;;;4.13;;
36799;SDS011;22752;51.960;5.886;2022-09-09T04:19:11;10.75;;;4.20;;
36799;SDS011;22752;51.960;5.886;2022-09-09T04:21:39;7.68;;;3.70;;
36799;SDS011;22752;51.960;5.886;2022-09-09T04:24:05;7.13;;;3.50;;
36799;SDS011;22752;51.960;5.886;2022-09-09T04:26:34;10.68;;;3.90;;
36799;SDS011;22752;51.960;5.886;2022-09-09T04:29:01;6.75;;;3.72;;
36799;SDS011;22752;51.960;5.886;2022-09-09T04:31:28;5.82;;;3.15;;
36799;SDS011;22752;51.960;5.886;2022-09-09T04:33:54;8.48;;;3.80;;
36799;SDS011;22752;51.960;5.886;2022-09-09T04:36:19;6.63;;;3.28;;
36799;SDS011;22752;51.960;5.886;2022-09-09T04:38:45;11.20;;;3.92;;
36799;SDS011;22752;51.960;5.886;2022-09-09T04:41:12;10.63;;;4.80;;
36799;SDS011;22752;51.960;5.886;2022-09-09T04:43:38;8.10;;;3.58;;
36799;SDS011;22752;51.960;5.886;2022-09-09T04:46:04;9.27;;;4.15;;
36799;SDS011;22752;51.960;5.886;2022-09-09T04:48:30;5.85;;;3.90;;
36799;SDS011;22752;51.960;5.886;2022-09-09T04:51:06;10.02;;;4.18;;
36799;SDS011;22752;51.960;5.886;2022-09-09T04:53:35;7.22;;;3.72;;
36799;SDS011;22752;51.960;5.886;2022-09-09T04:56:07;12.18;;;4.18;;
36799;SDS011;22752;51.960;5.886;2022-09-09T04:58:38;10.18;;;4.28;;
36799;SDS011;22752;51.960;5.886;2022-09-09T05:01:05;10.43;;;3.58;;
36799;SDS011;22752;51.960;5.886;2022-09-09T05:03:32;6.63;;;3.58;;
36799;SDS011;22752;51.960;5.886;2022-09-09T05:06:05;7.72;;;4.10;;
36799;SDS011;22752;51.960;5.886;2022-09-09T05:08:33;7.75;;;3.20;;
36799;SDS011;22752;51.960;5.886;2022-09-09T05:10:59;11.32;;;4.68;;
36799;SDS011;22752;51.960;5.886;2022-09-09T05:13:25;9.88;;;4.53;;
36799;SDS011;22752;51.960;5.886;2022-09-09T05:15:52;7.60;;;3.42;;
36799;SDS011;22752;51.960;5.886;2022-09-09T05:18:19;7.47;;;4.07;;
36799;SDS011;22752;51.960;5.886;2022-09-09T05:20:44;9.98;;;4.38;;
36799;SDS011;22752;51.960;5.886;2022-09-09T05:23:10;11.43;;;4.38;;
36799;SDS011;22752;51.960;5.886;2022-09-09T05:25:38;6.22;;;3.78;;
36799;SDS011;22752;51.960;5.886;2022-09-09T05:28:05;8.70;;;3.60;;
36799;SDS011;22752;51.960;5.886;2022-09-09T05:30:32;10.50;;;3.95;;
36799;SDS011;22752;51.960;5.886;2022-09-09T05:32:58;15.63;;;4.13;;
36799;SDS011;22752;51.960;5.886;2022-09-09T05:35:24;10.35;;;4.00;;
36799;SDS011;22752;51.960;5.886;2022-09-09T05:37:50;11.10;;;4.40;;
36799;SDS011;22752;51.960;5.886;2022-09-09T05:40:16;13.95;;;4.82;;
36799;SDS011;22752;51.960;5.886;2022-09-09T05:42:41;9.93;;;3.83;;
36799;SDS011;22752;51.960;5.886;2022-09-09T05:45:08;9.07;;;4.55;;
36799;SDS011;22752;51.960;5.886;2022-09-09T05:47:35;9.40;;;3.88;;
36799;SDS011;22752;51.960;5.886;2022-09-09T05:50:02;10.63;;;4.38;;
36799;SDS011;22752;51.960;5.886;2022-09-09T05:52:28;11.80;;;4.18;;
36799;SDS011;22752;51.960;5.886;2022-09-09T05:54:54;12.57;;;4.82;;
36799;SDS011;22752;51.960;5.886;2022-09-09T05:57:21;8.77;;;4.25;;
36799;SDS011;22752;51.960;5.886;2022-09-09T05:59:47;13.82;;;4.22;;
36799;SDS011;22752;51.960;5.886;2022-09-09T06:02:13;8.68;;;4.18;;
36799;SDS011;22752;51.960;5.886;2022-09-09T06:04:39;8.82;;;4.00;;
36799;SDS011;22752;51.960;5.886;2022-09-09T06:07:04;10.20;;;4.30;;
36799;SDS011;22752;51.960;5.886;2022-09-09T06:09:31;9.65;;;3.88;;
36799;SDS011;22752;51.960;5.886;2022-09-09T06:11:56;11.48;;;3.50;;
36799;SDS011;22752;51.960;5.886;2022-09-09T06:14:23;10.27;;;3.30;;
36799;SDS011;22752;51.960;5.886;2022-09-09T06:16:50;14.38;;;3.22;;
36799;SDS011;22752;51.960;5.886;2022-09-09T06:19:16;14.45;;;3.45;;
36799;SDS011;22752;51.960;5.886;2022-09-09T06:21:42;10.32;;;3.30;;
36799;SDS011;22752;51.960;5.886;2022-09-09T06:24:09;9.43;;;3.35;;
36799;SDS011;22752;51.960;5.886;2022-09-09T06:26:38;9.57;;;3.30;;
36799;SDS011;22752;51.960;5.886;2022-09-09T06:29:07;7.93;;;3.08;;
36799;SDS011;22752;51.960;5.886;2022-09-09T06:31:34;8.50;;;2.95;;
36799;SDS011;22752;51.960;5.886;2022-09-09T06:34:01;8.15;;;2.45;;
36799;SDS011;22752;51.960;5.886;2022-09-09T06:36:30;12.00;;;3.22;;
36799;SDS011;22752;51.960;5.886;2022-09-09T06:38:58;8.27;;;2.85;;
36799;SDS011;22752;51.960;5.886;2022-09-09T06:41:26;10.60;;;2.90;;
36799;SDS011;22752;51.960;5.886;2022-09-09T06:43:53;10.68;;;3.15;;
36799;SDS011;22752;51.960;5.886;2022-09-09T06:46:21;5.97;;;2.47;;
36799;SDS011;22752;51.960;5.886;2022-09-09T06:48:48;10.25;;;3.03;;
36799;SDS011;22752;51.960;5.886;2022-09-09T06:51:20;13.13;;;2.83;;
36799;SDS011;22752;51.960;5.886;2022-09-09T06:53:49;11.95;;;3.13;;
36799;SDS011;22752;51.960;5.886;2022-09-09T06:58:44;8.70;;;2.40;;
36799;SDS011;22752;51.960;5.886;2022-09-09T07:01:14;11.95;;;2.70;;
36799;SDS011;22752;51.960;5.886;2022-09-09T07:03:41;9.30;;;2.20;;
36799;SDS011;22752;51.960;5.886;2022-09-09T07:06:13;6.72;;;2.45;;
36799;SDS011;22752;51.960;5.886;2022-09-09T07:08:41;13.68;;;2.88;;
36799;SDS011;22752;51.960;5.886;2022-09-09T07:11:08;7.68;;;2.53;;
36799;SDS011;22752;51.960;5.886;2022-09-09T07:13:34;10.27;;;2.50;;
36799;SDS011;22752;51.960;5.886;2022-09-09T07:16:19;9.15;;;2.50;;
36799;SDS011;22752;51.960;5.886;2022-09-09T07:18:45;11.02;;;2.50;;
36799;SDS011;22752;51.960;5.886;2022-09-09T07:21:12;8.05;;;2.47;;
36799;SDS011;22752;51.960;5.886;2022-09-09T07:23:39;8.85;;;2.08;;
36799;SDS011;22752;51.960;5.886;2022-09-09T07:26:13;7.43;;;2.40;;
36799;SDS011;22752;51.960;5.886;2022-09-09T07:28:40;9.25;;;2.75;;
36799;SDS011;22752;51.960;5.886;2022-09-09T07:31:07;11.45;;;2.53;;
36799;SDS011;22752;51.960;5.886;2022-09-09T07:33:41;10.73;;;3.00;;
36799;SDS011;22752;51.960;5.886;2022-09-09T07:36:08;9.40;;;2.53;;
36799;SDS011;22752;51.960;5.886;2022-09-09T07:38:38;12.07;;;2.83;;
36799;SDS011;22752;51.960;5.886;2022-09-09T07:41:05;9.07;;;2.58;;
36799;SDS011;22752;51.960;5.886;2022-09-09T07:43:36;9.65;;;2.95;;
36799;SDS011;22752;51.960;5.886;2022-09-09T07:46:05;11.25;;;2.63;;
36799;SDS011;22752;51.960;5.886;2022-09-09T07:48:34;8.95;;;2.60;;
36799;SDS011;22752;51.960;5.886;2022-09-09T07:51:10;9.80;;;2.92;;
36799;SDS011;22752;51.960;5.886;2022-09-09T07:53:38;8.65;;;2.40;;
36799;SDS011;22752;51.960;5.886;2022-09-09T07:56:05;13.93;;;2.42;;
36799;SDS011;22752;51.960;5.886;2022-09-09T07:58:34;8.60;;;2.38;;
36799;SDS011;22752;51.960;5.886;2022-09-09T08:01:05;12.13;;;2.53;;
36799;SDS011;22752;51.960;5.886;2022-09-09T08:03:38;10.20;;;2.58;;
36799;SDS011;22752;51.960;5.886;2022-09-09T08:06:05;15.85;;;2.75;;
36799;SDS011;22752;51.960;5.886;2022-09-09T08:08:33;10.18;;;2.50;;
36799;SDS011;22752;51.960;5.886;2022-09-09T08:11:12;8.52;;;2.15;;
36799;SDS011;22752;51.960;5.886;2022-09-09T08:13:43;9.35;;;2.50;;
36799;SDS011;22752;51.960;5.886;2022-09-09T08:16:16;9.85;;;2.22;;
36799;SDS011;22752;51.960;5.886;2022-09-09T08:18:46;9.02;;;2.10;;
36799;SDS011;22752;51.960;5.886;2022-09-09T08:21:15;7.28;;;2.05;;
36799;SDS011;22752;51.960;5.886;2022-09-09T08:23:44;11.40;;;3.08;;
36799;SDS011;22752;51.960;5.886;2022-09-09T08:26:16;8.98;;;2.38;;
36799;SDS011;22752;51.960;5.886;2022-09-09T08:28:50;8.85;;;2.30;;
36799;SDS011;22752;51.960;5.886;2022-09-09T08:31:21;12.00;;;2.42;;
36799;SDS011;22752;51.960;5.886;2022-09-09T08:34:00;11.43;;;2.65;;
36799;SDS011;22752;51.960;5.886;2022-09-09T08:36:31;10.05;;;2.30;;
36799;SDS011;22752;51.960;5.886;2022-09-09T08:38:59;10.48;;;2.45;;
36799;SDS011;22752;51.960;5.886;2022-09-09T08:51:56;8.87;;;2.37;;
36799;SDS011;22752;51.960;5.886;2022-09-09T08:54:23;8.18;;;2.40;;
36799;SDS011;22752;51.960;5.886;2022-09-09T08:56:51;13.40;;;2.22;;
36799;SDS011;22752;51.960;5.886;2022-09-09T08:59:17;12.20;;;2.38;;
36799;SDS011;22752;51.960;5.886;2022-09-09T09:02:04;8.73;;;2.20;;
36799;SDS011;22752;51.960;5.886;2022-09-09T09:04:46;12.40;;;2.55;;
36799;SDS011;22752;51.960;5.886;2022-09-09T09:13:03;9.18;;;2.10;;
36799;SDS011;22752;51.960;5.886;2022-09-09T09:15:41;7.05;;;1.63;;
36799;SDS011;22752;51.960;5.886;2022-09-09T09:18:08;12.77;;;2.90;;
36799;SDS011;22752;51.960;5.886;2022-09-09T09:20:58;8.18;;;2.00;;
36799;SDS011;22752;51.960;5.886;2022-09-09T09:23:57;10.25;;;2.25;;
36799;SDS011;22752;51.960;5.886;2022-09-09T09:26:25;7.38;;;2.05;;
36799;SDS011;22752;51.960;5.886;2022-09-09T09:29:13;7.95;;;1.70;;
36799;SDS011;22752;51.960;5.886;2022-09-09T09:31:45;6.75;;;1.88;;
36799;SDS011;22752;51.960;5.886;2022-09-09T09:34:21;9.45;;;2.13;;
36799;SDS011;22752;51.960;5.886;2022-09-09T09:36:53;7.35;;;2.05;;
36799;SDS011;22752;51.960;5.886;2022-09-09T09:39:27;10.38;;;2.70;;
36799;SDS011;22752;51.960;5.886;2022-09-09T09:41:54;7.22;;;2.10;;
36799;SDS011;22752;51.960;5.886;2022-09-09T09:44:22;9.13;;;1.70;;
36799;SDS011;22752;51.960;5.886;2022-09-09T09:46:50;11.48;;;2.22;;
36799;SDS011;22752;51.960;5.886;2022-09-09T09:49:15;9.15;;;1.60;;
36799;SDS011;22752;51.960;5.886;2022-09-09T09:51:42;8.90;;;1.80;;
36799;SDS011;22752;51.960;5.886;2022-09-09T09:54:16;7.80;;;2.08;;
36799;SDS011;22752;51.960;5.886;2022-09-09T09:56:56;8.48;;;1.80;;
36799;SDS011;22752;51.960;5.886;2022-09-09T09:59:33;8.60;;;2.05;;
36799;SDS011;22752;51.960;5.886;2022-09-09T10:04:39;9.93;;;1.90;;
36799;SDS011;22752;51.960;5.886;2022-09-09T10:07:39;6.90;;;2.08;;
36799;SDS011;22752;51.960;5.886;2022-09-09T10:09:58;5.90;;;1.93;;
36799;SDS011;22752;51.960;5.886;2022-09-09T10:15:03;8.43;;;2.10;;
36799;SDS011;22752;51.960;5.886;2022-09-09T10:26:40;9.75;;;2.10;;
36799;SDS011;22752;51.960;5.886;2022-09-09T10:32:24;10.18;;;2.33;;
36799;SDS011;22752;51.960;5.886;2022-09-09T10:42:56;11.88;;;2.03;;
36799;SDS011;22752;51.960;5.886;2022-09-09T10:56:13;7.65;;;2.25;;
36799;SDS011;22752;51.960;5.886;2022-09-09T11:01:25;8.50;;;2.00;;
36799;SDS011;22752;51.960;5.886;2022-09-09T11:06:59;12.13;;;2.28;;
36799;SDS011;22752;51.960;5.886;2022-09-09T11:09:35;8.27;;;2.10;;
36799;SDS011;22752;51.960;5.886;2022-09-09T11:12:06;9.90;;;1.92;;
36799;SDS011;22752;51.960;5.886;2022-09-09T11:14:51;10.35;;;1.90;;
36799;SDS011;22752;51.960;5.886;2022-09-09T11:17:31;9.63;;;2.47;;
36799;SDS011;22752;51.960;5.886;2022-09-09T11:20:05;9.15;;;2.17;;
36799;SDS011;22752;51.960;5.886;2022-09-09T11:42:13;5.60;;;1.50;;
36799;SDS011;22752;51.960;5.886;2022-09-09T11:44:43;5.78;;;1.85;;
36799;SDS011;22752;51.960;5.886;2022-09-09T11:47:26;7.72;;;1.80;;
36799;SDS011;22752;51.960;5.886;2022-09-09T11:55:26;5.20;;;1.80;;
36799;SDS011;22752;51.960;5.886;2022-09-09T11:58:19;7.82;;;1.85;;
36799;SDS011;22752;51.960;5.886;2022-09-09T12:00:47;6.07;;;1.55;;
36799;SDS011;22752;51.960;5.886;2022-09-09T12:15:03;7.18;;;1.83;;
36799;SDS011;22752;51.960;5.886;2022-09-09T12:17:46;7.57;;;2.40;;
36799;SDS011;22752;51.960;5.886;2022-09-09T12:23:22;5.50;;;1.58;;
36799;SDS011;22752;51.960;5.886;2022-09-09T12:31:32;14.20;;;1.88;;
36799;SDS011;22752;51.960;5.886;2022-09-09T12:34:09;9.95;;;2.00;;
36799;SDS011;22752;51.960;5.886;2022-09-09T12:37:02;5.00;;;1.42;;
36799;SDS011;22752;51.960;5.886;2022-09-09T12:39:55;5.78;;;1.88;;
36799;SDS011;22752;51.960;5.886;2022-09-09T12:42:23;4.50;;;1.52;;
36799;SDS011;22752;51.960;5.886;2022-09-09T12:44:50;5.47;;;2.03;;
36799;SDS011;22752;51.960;5.886;2022-09-09T12:47:37;6.20;;;1.65;;
36799;SDS011;22752;51.960;5.886;2022-09-09T12:50:20;6.63;;;1.95;;
36799;SDS011;22752;51.960;5.886;2022-09-09T12:52:50;8.55;;;1.90;;
36799;SDS011;22752;51.960;5.886;2022-09-09T12:55:23;5.43;;;1.75;;
36799;SDS011;22752;51.960;5.886;2022-09-09T12:57:52;4.53;;;1.80;;
36799;SDS011;22752;51.960;5.886;2022-09-09T13:00:20;4.57;;;1.65;;
36799;SDS011;22752;51.960;5.886;2022-09-09T13:02:51;4.88;;;1.75;;
36799;SDS011;22752;51.960;5.886;2022-09-09T13:05:20;6.50;;;1.42;;
36799;SDS011;22752;51.960;5.886;2022-09-09T13:07:49;6.00;;;1.77;;
36799;SDS011;22752;51.960;5.886;2022-09-09T13:10:24;9.18;;;2.10;;
36799;SDS011;22752;51.960;5.886;2022-09-09T13:12:53;4.30;;;1.67;;
36799;SDS011;22752;51.960;5.886;2022-09-09T13:15:23;7.07;;;1.85;;
36799;SDS011;22752;51.960;5.886;2022-09-09T13:17:59;6.93;;;2.15;;
36799;SDS011;22752;51.960;5.886;2022-09-09T13:20:30;6.47;;;1.85;;
36799;SDS011;22752;51.960;5.886;2022-09-09T13:22:56;4.85;;;1.80;;
36799;SDS011;22752;51.960;5.886;2022-09-09T13:25:29;4.40;;;1.70;;
36799;SDS011;22752;51.960;5.886;2022-09-09T13:28:02;4.63;;;1.70;;
36799;SDS011;22752;51.960;5.886;2022-09-09T13:30:30;7.63;;;2.10;;
36799;SDS011;22752;51.960;5.886;2022-09-09T13:41:22;6.00;;;1.95;;
36799;SDS011;22752;51.960;5.886;2022-09-09T13:43:50;5.45;;;1.90;;
36799;SDS011;22752;51.960;5.886;2022-09-09T13:46:34;6.35;;;1.80;;
36799;SDS011;22752;51.960;5.886;2022-09-09T13:51:40;6.18;;;1.60;;
36799;SDS011;22752;51.960;5.886;2022-09-09T13:54:08;6.40;;;2.13;;
36799;SDS011;22752;51.960;5.886;2022-09-09T13:56:36;9.13;;;1.80;;
36799;SDS011;22752;51.960;5.886;2022-09-09T13:59:03;7.70;;;2.17;;
36799;SDS011;22752;51.960;5.886;2022-09-09T14:01:30;9.27;;;1.80;;
36799;SDS011;22752;51.960;5.886;2022-09-09T14:03:56;5.68;;;1.52;;
36799;SDS011;22752;51.960;5.886;2022-09-09T14:06:21;5.78;;;1.73;;
36799;SDS011;22752;51.960;5.886;2022-09-09T14:08:49;6.40;;;1.90;;
36799;SDS011;22752;51.960;5.886;2022-09-09T14:11:15;5.35;;;1.70;;
36799;SDS011;22752;51.960;5.886;2022-09-09T14:13:42;5.00;;;1.98;;
36799;SDS011;22752;51.960;5.886;2022-09-09T14:16:07;4.05;;;1.30;;
36799;SDS011;22752;51.960;5.886;2022-09-09T14:18:33;4.20;;;1.50;;
36799;SDS011;22752;51.960;5.886;2022-09-09T14:20:59;5.63;;;1.60;;
36799;SDS011;22752;51.960;5.886;2022-09-09T14:23:25;3.78;;;1.55;;
36799;SDS011;22752;51.960;5.886;2022-09-09T14:25:50;4.95;;;1.80;;
36799;SDS011;22752;51.960;5.886;2022-09-09T14:28:17;6.00;;;1.85;;
36799;SDS011;22752;51.960;5.886;2022-09-09T14:30:43;7.28;;;1.67;;
36799;SDS011;22752;51.960;5.886;2022-09-09T14:33:13;5.40;;;1.50;;
36799;SDS011;22752;51.960;5.886;2022-09-09T14:35:40;6.10;;;1.67;;
36799;SDS011;22752;51.960;5.886;2022-09-09T14:38:06;5.40;;;1.83;;
36799;SDS011;22752;51.960;5.886;2022-09-09T14:40:34;7.85;;;2.03;;
36799;SDS011;22752;51.960;5.886;2022-09-09T14:43:00;4.03;;;1.20;;
36799;SDS011;22752;51.960;5.886;2022-09-09T14:45:27;5.43;;;1.60;;
36799;SDS011;22752;51.960;5.886;2022-09-09T14:47:53;4.63;;;1.38;;
36799;SDS011;22752;51.960;5.886;2022-09-09T14:50:19;6.20;;;1.65;;
36799;SDS011;22752;51.960;5.886;2022-09-09T14:52:45;4.45;;;1.70;;
36799;SDS011;22752;51.960;5.886;2022-09-09T14:55:11;4.60;;;1.65;;
36799;SDS011;22752;51.960;5.886;2022-09-09T14:57:37;8.15;;;1.70;;
36799;SDS011;22752;51.960;5.886;2022-09-09T15:00:04;6.13;;;1.73;;
36799;SDS011;22752;51.960;5.886;2022-09-09T15:02:30;9.10;;;2.00;;
36799;SDS011;22752;51.960;5.886;2022-09-09T15:04:56;7.32;;;2.00;;
36799;SDS011;22752;51.960;5.886;2022-09-09T15:07:23;9.88;;;1.80;;
36799;SDS011;22752;51.960;5.886;2022-09-09T15:09:49;9.02;;;1.63;;
36799;SDS011;22752;51.960;5.886;2022-09-09T15:12:15;6.40;;;1.77;;
36799;SDS011;22752;51.960;5.886;2022-09-09T15:14:42;4.18;;;1.45;;
36799;SDS011;22752;51.960;5.886;2022-09-09T15:17:08;6.82;;;1.73;;
36799;SDS011;22752;51.960;5.886;2022-09-09T15:19:33;7.63;;;2.00;;
36799;SDS011;22752;51.960;5.886;2022-09-09T15:21:59;8.90;;;2.13;;
36799;SDS011;22752;51.960;5.886;2022-09-09T15:24:25;3.05;;;1.20;;
36799;SDS011;22752;51.960;5.886;2022-09-09T15:26:51;5.60;;;1.75;;
36799;SDS011;22752;51.960;5.886;2022-09-09T15:29:17;6.13;;;1.50;;
36799;SDS011;22752;51.960;5.886;2022-09-09T15:31:43;6.50;;;2.38;;
36799;SDS011;22752;51.960;5.886;2022-09-09T15:34:09;4.70;;;1.42;;
36799;SDS011;22752;51.960;5.886;2022-09-09T15:36:36;5.22;;;1.60;;
36799;SDS011;22752;51.960;5.886;2022-09-09T15:39:07;6.28;;;1.90;;
36799;SDS011;22752;51.960;5.886;2022-09-09T15:41:37;6.20;;;2.22;;
36799;SDS011;22752;51.960;5.886;2022-09-09T15:44:03;5.13;;;1.45;;
36799;SDS011;22752;51.960;5.886;2022-09-09T15:48:58;5.68;;;1.67;;
36799;SDS011;22752;51.960;5.886;2022-09-09T15:51:28;5.57;;;1.80;;
36799;SDS011;22752;51.960;5.886;2022-09-09T15:53:54;8.23;;;1.80;;
36799;SDS011;22752;51.960;5.886;2022-09-09T15:56:21;6.78;;;1.58;;
36799;SDS011;22752;51.960;5.886;2022-09-09T15:58:47;4.60;;;1.67;;
36799;SDS011;22752;51.960;5.886;2022-09-09T16:01:13;7.25;;;1.80;;
36799;SDS011;22752;51.960;5.886;2022-09-09T16:03:40;6.72;;;1.65;;
36799;SDS011;22752;51.960;5.886;2022-09-09T16:06:08;7.28;;;2.15;;
36799;SDS011;22752;51.960;5.886;2022-09-09T16:08:38;7.95;;;2.28;;
36799;SDS011;22752;51.960;5.886;2022-09-09T16:11:10;9.90;;;1.92;;
36799;SDS011;22752;51.960;5.886;2022-09-09T16:13:40;4.38;;;1.80;;
36799;SDS011;22752;51.960;5.886;2022-09-09T16:16:08;4.88;;;1.80;;
36799;SDS011;22752;51.960;5.886;2022-09-09T16:18:36;4.38;;;1.80;;
36799;SDS011;22752;51.960;5.886;2022-09-09T16:21:03;4.63;;;2.15;;
36799;SDS011;22752;51.960;5.886;2022-09-09T16:23:30;6.07;;;2.15;;
36799;SDS011;22752;51.960;5.886;2022-09-09T16:25:59;4.35;;;2.05;;
36799;SDS011;22752;51.960;5.886;2022-09-09T16:28:25;4.03;;;2.00;;
36799;SDS011;22752;51.960;5.886;2022-09-09T16:30:51;6.00;;;2.15;;
36799;SDS011;22752;51.960;5.886;2022-09-09T16:33:18;5.60;;;2.45;;
36799;SDS011;22752;51.960;5.886;2022-09-09T16:35:44;5.85;;;1.90;;
36799;SDS011;22752;51.960;5.886;2022-09-09T16:38:10;5.75;;;1.73;;
36799;SDS011;22752;51.960;5.886;2022-09-09T16:40:39;4.18;;;1.60;;
36799;SDS011;22752;51.960;5.886;2022-09-09T16:43:06;3.25;;;1.40;;
36799;SDS011;22752;51.960;5.886;2022-09-09T16:45:32;3.33;;;1.30;;
36799;SDS011;22752;51.960;5.886;2022-09-09T16:47:58;2.88;;;1.48;;
36799;SDS011;22752;51.960;5.886;2022-09-09T16:50:25;5.85;;;1.83;;
36799;SDS011;22752;51.960;5.886;2022-09-09T16:52:51;4.65;;;1.58;;
36799;SDS011;22752;51.960;5.886;2022-09-09T16:55:17;3.20;;;1.40;;
36799;SDS011;22752;51.960;5.886;2022-09-09T16:57:45;3.15;;;1.50;;
36799;SDS011;22752;51.960;5.886;2022-09-09T17:00:14;2.22;;;1.42;;
36799;SDS011;22752;51.960;5.886;2022-09-09T17:02:41;3.95;;;1.20;;
36799;SDS011;22752;51.960;5.886;2022-09-09T17:05:08;3.42;;;1.60;;
36799;SDS011;22752;51.960;5.886;2022-09-09T17:07:34;3.60;;;1.42;;
36799;SDS011;22752;51.960;5.886;2022-09-09T17:10:00;6.45;;;1.70;;
36799;SDS011;22752;51.960;5.886;2022-09-09T17:12:26;3.05;;;1.48;;
36799;SDS011;22752;51.960;5.886;2022-09-09T17:14:52;4.55;;;1.75;;
36799;SDS011;22752;51.960;5.886;2022-09-09T17:17:17;6.10;;;1.90;;
36799;SDS011;22752;51.960;5.886;2022-09-09T17:19:43;4.45;;;1.60;;
36799;SDS011;22752;51.960;5.886;2022-09-09T17:22:08;2.85;;;1.50;;
36799;SDS011;22752;51.960;5.886;2022-09-09T17:24:34;3.00;;;1.67;;
36799;SDS011;22752;51.960;5.886;2022-09-09T17:27:00;2.75;;;1.80;;
36799;SDS011;22752;51.960;5.886;2022-09-09T17:29:27;2.53;;;1.60;;
36799;SDS011;22752;51.960;5.886;2022-09-09T17:31:52;4.03;;;2.00;;
36799;SDS011;22752;51.960;5.886;2022-09-09T17:34:19;2.70;;;1.52;;
36799;SDS011;22752;51.960;5.886;2022-09-09T17:36:45;4.45;;;1.92;;
36799;SDS011;22752;51.960;5.886;2022-09-09T17:39:11;4.82;;;2.28;;
36799;SDS011;22752;51.960;5.886;2022-09-09T17:41:38;3.17;;;2.05;;
36799;SDS011;22752;51.960;5.886;2022-09-09T17:44:05;3.67;;;2.05;;